Time;durP1;ratioP1;P1;durP2;ratioP2;P2;SDS_P1;SDS_P2;PMS_P1;PMS_P2;Temp;Humidity;BMP_temperature;BMP_pressure;BME280_temperature;BME280_humidity;BME280_pressure;Samples;Min_cycle;Max_cycle;Signal;HPM_P1;HPM_P2
2022/06/15 00:01:13;;;;;;;10.20;6.07;;;13.60;1.00;;;;;;5067174;28;20853;-81
2022/06/15 00:03:41;;;;;;;12.60;6.10;;;13.60;1.00;;;;;;5061368;28;20534;-81
2022/06/15 00:06:13;;;;;;;10.70;5.63;;;13.50;1.00;;;;;;5066703;28;20472;-79
2022/06/15 00:08:43;;;;;;;12.07;5.80;;;13.50;1.00;;;;;;5065934;28;20471;-79
2022/06/15 00:11:12;;;;;;;12.40;5.97;;;13.50;1.00;;;;;;5068223;28;20464;-81
2022/06/15 00:13:39;;;;;;;11.87;5.80;;;13.40;1.00;;;;;;5066998;28;20483;-81
2022/06/15 00:16:07;;;;;;;10.37;5.87;;;13.40;1.00;;;;;;5067535;28;20487;-79
2022/06/15 00:18:35;;;;;;;9.77;5.10;;;13.40;1.00;;;;;;5063272;28;20645;-80
2022/06/15 00:21:05;;;;;;;12.57;7.07;;;13.40;1.00;;;;;;5068971;28;20466;-81
2022/06/15 00:23:32;;;;;;;12.43;5.67;;;13.50;1.00;;;;;;5067604;28;20514;-79
2022/06/15 00:25:59;;;;;;;11.83;5.93;;;13.50;1.00;;;;;;5069076;28;20463;-79
2022/06/15 00:28:27;;;;;;;10.57;6.07;;;13.50;1.00;;;;;;5064286;28;20506;-79
2022/06/15 00:30:54;;;;;;;10.20;5.90;;;13.40;1.00;;;;;;5063674;28;20954;-80
2022/06/15 00:33:22;;;;;;;10.90;6.23;;;13.40;1.00;;;;;;5064251;28;20560;-79
2022/06/15 00:35:57;;;;;;;10.53;5.23;;;13.40;1.00;;;;;;5067503;28;20426;-80
2022/06/15 00:38:27;;;;;;;11.43;5.37;;;13.40;1.00;;;;;;5063043;28;20440;-79
2022/06/15 00:40:54;;;;;;;9.50;5.90;;;13.30;1.00;;;;;;5064083;28;20475;-80
2022/06/15 00:43:36;;;;;;;12.90;5.90;;;13.30;1.00;;;;;;5062603;28;20478;-80
2022/06/15 00:46:16;;;;;;;10.70;6.23;;;13.20;1.00;;;;;;5064595;28;20479;-79
2022/06/15 00:48:45;;;;;;;9.57;5.97;;;13.20;1.00;;;;;;5061986;28;20421;-80
2022/06/15 00:51:12;;;;;;;11.60;5.50;;;13.10;1.00;;;;;;5067841;28;20573;-80
2022/06/15 00:53:41;;;;;;;11.43;6.10;;;13.10;1.00;;;;;;5064156;28;20539;-80
2022/06/15 00:56:09;;;;;;;11.20;5.77;;;13.10;1.00;;;;;;5065126;28;20519;-81
2022/06/15 00:58:37;;;;;;;12.80;6.20;;;13.00;1.00;;;;;;5065598;28;20461;-81
2022/06/15 01:01:04;;;;;;;9.40;5.40;;;13.00;1.00;;;;;;5063667;28;20469;-81
2022/06/15 01:03:32;;;;;;;11.30;5.60;;;13.00;1.00;;;;;;5060620;28;20550;-81
2022/06/15 01:06:09;;;;;;;10.80;5.40;;;13.10;1.00;;;;;;5062421;28;22041;-81
2022/06/15 01:08:46;;;;;;;10.13;5.87;;;13.00;1.00;;;;;;5066595;28;20470;-81
2022/06/15 01:11:38;;;;;;;11.93;6.10;;;13.00;1.00;;;;;;5065265;28;20923;-82
2022/06/15 01:14:32;;;;;;;12.20;5.60;;;13.00;1.00;;;;;;5067660;28;20459;-80
2022/06/15 01:17:11;;;;;;;11.20;6.10;;;12.90;1.00;;;;;;5065596;28;20458;-81
2022/06/15 01:20:10;;;;;;;14.47;6.30;;;12.90;1.00;;;;;;5066089;28;20468;-80
2022/06/15 01:23:18;;;;;;;11.07;6.27;;;12.90;1.00;;;;;;5060405;28;20558;-80
2022/06/15 01:25:55;;;;;;;12.77;6.13;;;12.90;1.00;;;;;;5065680;28;20451;-80
2022/06/15 01:28:52;;;;;;;10.53;6.20;;;12.80;1.00;;;;;;5065157;28;20473;-80
2022/06/15 01:31:30;;;;;;;11.53;6.50;;;12.80;1.00;;;;;;5021074;28;20482;-80
2022/06/15 01:34:13;;;;;;;10.60;5.93;;;12.70;1.00;;;;;;5058584;28;20479;-80
2022/06/15 01:36:48;;;;;;;9.23;5.70;;;12.70;1.00;;;;;;5067602;28;20965;-80
2022/06/15 01:39:21;;;;;;;10.43;6.10;;;12.70;1.00;;;;;;5067711;28;20513;-81
2022/06/15 01:41:56;;;;;;;11.00;6.30;;;12.60;1.00;;;;;;5066907;28;20605;-81
2022/06/15 01:44:26;;;;;;;13.17;6.47;;;12.60;1.00;;;;;;5061760;28;21126;-80
2022/06/15 01:46:56;;;;;;;12.07;6.23;;;12.50;1.00;;;;;;5060467;28;20460;-81
2022/06/15 01:49:26;;;;;;;10.67;6.03;;;12.60;1.00;;;;;;5059121;28;20463;-80
2022/06/15 01:51:53;;;;;;;11.20;6.40;;;12.60;1.00;;;;;;5065796;28;20468;-81
2022/06/15 01:54:24;;;;;;;9.63;5.93;;;12.60;1.00;;;;;;5062039;28;20463;-81
2022/06/15 01:56:53;;;;;;;11.97;6.27;;;12.60;1.00;;;;;;5059354;28;20534;-81
2022/06/15 01:59:24;;;;;;;14.17;6.27;;;12.60;1.00;;;;;;5063219;28;20487;-81
2022/06/15 02:02:02;;;;;;;11.70;6.40;;;12.60;1.00;;;;;;5063367;28;20488;-80
2022/06/15 02:04:35;;;;;;;15.13;6.10;;;12.60;1.00;;;;;;5065074;28;20456;-81
2022/06/15 02:07:15;;;;;;;13.07;7.00;;;12.50;1.00;;;;;;5067339;28;20523;-80
2022/06/15 02:09:49;;;;;;;10.70;6.27;;;12.50;1.00;;;;;;5067967;28;23162;-81
2022/06/15 02:12:21;;;;;;;13.13;6.10;;;12.40;1.00;;;;;;5067989;28;20419;-81
2022/06/15 02:14:54;;;;;;;12.57;6.97;;;12.40;1.00;;;;;;5068926;28;20499;-80
2022/06/15 02:17:27;;;;;;;12.80;5.97;;;12.40;1.00;;;;;;5065523;28;20456;-81
2022/06/15 02:19:59;;;;;;;10.43;6.60;;;12.30;1.00;;;;;;5065123;28;20459;-80
2022/06/15 02:22:31;;;;;;;14.30;6.40;;;12.30;1.00;;;;;;5066091;28;20579;-81
2022/06/15 02:25:03;;;;;;;11.97;6.33;;;12.30;1.00;;;;;;5064702;28;20468;-81
2022/06/15 02:27:32;;;;;;;13.13;6.97;;;12.30;1.00;;;;;;5067559;28;20479;-81
2022/06/15 02:30:05;;;;;;;12.43;5.73;;;12.30;1.00;;;;;;5066984;27;20560;-81
2022/06/15 02:32:36;;;;;;;14.70;7.20;;;12.30;1.00;;;;;;5068906;28;20461;-81
2022/06/15 02:35:03;;;;;;;13.60;6.43;;;12.30;1.00;;;;;;5067416;28;20427;-81
2022/06/15 02:37:30;;;;;;;13.10;6.73;;;12.30;1.00;;;;;;5068004;28;20429;-81
2022/06/15 02:39:57;;;;;;;17.50;7.90;;;12.30;1.00;;;;;;5069277;28;20435;-81
2022/06/15 02:42:28;;;;;;;12.27;7.70;;;12.20;1.00;;;;;;5065101;28;20464;-81
2022/06/15 02:44:58;;;;;;;15.33;6.83;;;12.20;1.00;;;;;;5068973;28;20470;-81
2022/06/15 02:47:31;;;;;;;13.17;7.53;;;12.20;1.00;;;;;;5065502;28;20448;-80
2022/06/15 02:50:00;;;;;;;14.40;6.93;;;12.10;1.00;;;;;;5069819;28;21116;-81
2022/06/15 02:52:31;;;;;;;16.00;6.87;;;12.10;1.00;;;;;;5064233;28;20461;-81
2022/06/15 02:54:58;;;;;;;15.87;7.03;;;12.10;1.00;;;;;;5073077;28;20475;-81
2022/06/15 02:57:26;;;;;;;14.07;7.93;;;12.00;1.00;;;;;;5072370;28;20455;-80
2022/06/15 02:59:53;;;;;;;13.50;7.00;;;12.00;1.00;;;;;;5070529;28;20483;-81
2022/06/15 03:02:20;;;;;;;12.10;6.37;;;12.00;1.00;;;;;;5069202;28;20529;-81
2022/06/15 03:04:48;;;;;;;13.40;7.17;;;12.00;1.00;;;;;;5065009;28;20427;-81
2022/06/15 03:07:19;;;;;;;12.83;7.17;;;12.00;1.00;;;;;;5070180;28;20424;-81
2022/06/15 03:09:46;;;;;;;11.13;6.03;;;12.10;1.00;;;;;;5067138;28;20637;-81
2022/06/15 03:12:13;;;;;;;14.10;6.67;;;12.00;1.00;;;;;;5071139;28;20454;-81
2022/06/15 03:14:40;;;;;;;14.83;6.97;;;12.00;1.00;;;;;;5069409;28;20485;-81
2022/06/15 03:17:07;;;;;;;12.40;7.10;;;12.00;1.00;;;;;;5067087;28;21089;-81
2022/06/15 03:19:33;;;;;;;11.53;6.90;;;12.00;1.00;;;;;;5069926;28;20570;-80
2022/06/15 03:22:01;;;;;;;12.00;6.63;;;12.00;1.00;;;;;;5070654;28;20942;-79
2022/06/15 03:24:29;;;;;;;12.93;6.80;;;12.00;1.00;;;;;;5071497;28;20485;-81
2022/06/15 03:26:56;;;;;;;15.37;7.50;;;12.00;1.00;;;;;;5069841;28;20463;-79
2022/06/15 03:29:23;;;;;;;15.83;8.53;;;12.00;1.00;;;;;;5071816;28;21306;-78
2022/06/15 03:31:51;;;;;;;16.87;8.13;;;12.00;1.00;;;;;;5070896;28;20456;-79
2022/06/15 03:34:17;;;;;;;14.20;7.37;;;11.90;1.00;;;;;;5067984;28;20566;-80
2022/06/15 03:36:44;;;;;;;14.30;6.90;;;11.90;1.00;;;;;;5058041;28;20477;-81
2022/06/15 03:39:11;;;;;;;19.10;7.90;;;11.90;1.00;;;;;;5078612;28;20459;-80
2022/06/15 03:41:39;;;;;;;13.47;7.77;;;11.80;1.00;;;;;;5072028;28;20432;-81
2022/06/15 03:44:06;;;;;;;16.50;8.00;;;11.80;1.00;;;;;;5066021;28;21198;-80
2022/06/15 03:46:33;;;;;;;19.73;12.03;;;11.90;1.00;;;;;;5068894;28;20487;-81
2022/06/15 03:49:00;;;;;;;13.30;7.20;;;12.00;1.00;;;;;;5066265;28;21281;-80
2022/06/15 03:51:27;;;;;;;14.53;7.70;;;12.00;1.00;;;;;;5067643;28;20469;-80
2022/06/15 03:53:54;;;;;;;49.20;12.20;;;12.10;1.00;;;;;;5053454;28;24703;-81
2022/06/15 03:56:21;;;;;;;21.00;7.50;;;12.20;1.00;;;;;;5062565;28;20504;-80
2022/06/15 03:58:49;;;;;;;16.10;8.53;;;12.20;1.00;;;;;;5062986;28;20546;-81
2022/06/15 04:01:16;;;;;;;16.77;8.27;;;12.30;1.00;;;;;;5064976;28;20523;-80
2022/06/15 04:03:43;;;;;;;13.37;6.60;;;12.40;1.00;;;;;;5057216;28;20457;-80
2022/06/15 04:06:10;;;;;;;15.80;7.80;;;12.40;1.00;;;;;;5064026;28;20465;-80
2022/06/15 04:08:37;;;;;;;16.40;7.90;;;12.50;1.00;;;;;;5063026;28;20546;-81
2022/06/15 04:11:06;;;;;;;19.20;7.33;;;12.50;1.00;;;;;;5065126;28;20460;-81
2022/06/15 04:13:33;;;;;;;13.50;6.77;;;12.60;1.00;;;;;;5069030;28;20426;-82
2022/06/15 04:16:02;;;;;;;14.73;7.90;;;12.60;1.00;;;;;;5067772;28;20447;-81
2022/06/15 04:18:29;;;;;;;16.60;10.53;;;12.70;1.00;;;;;;5067195;28;21461;-81
2022/06/15 04:20:56;;;;;;;11.80;6.27;;;12.80;1.00;;;;;;5064022;28;20894;-77
2022/06/15 04:23:24;;;;;;;14.37;7.10;;;12.70;1.00;;;;;;5063751;28;20868;-78
2022/06/15 04:25:57;;;;;;;15.47;7.80;;;12.80;1.00;;;;;;5069051;28;20448;-78
2022/06/15 04:28:26;;;;;;;18.37;7.33;;;12.80;1.00;;;;;;5065673;28;21008;-76
2022/06/15 04:30:53;;;;;;;13.83;7.60;;;12.90;1.00;;;;;;5064189;28;20425;-77
2022/06/15 04:33:23;;;;;;;13.60;6.63;;;13.00;1.00;;;;;;5066238;28;20533;-77
2022/06/15 04:35:50;;;;;;;15.93;6.83;;;13.10;1.00;;;;;;5063146;28;20435;-80
2022/06/15 04:38:17;;;;;;;12.77;7.37;;;13.10;1.00;;;;;;5060174;28;20478;-76
2022/06/15 04:40:45;;;;;;;13.90;6.40;;;13.20;1.00;;;;;;5062505;28;20551;-77
2022/06/15 04:43:12;;;;;;;17.23;6.80;;;13.30;1.00;;;;;;5063802;28;20559;-76
2022/06/15 04:45:39;;;;;;;14.00;6.27;;;13.40;1.00;;;;;;5060975;28;20962;-76
2022/06/15 04:48:06;;;;;;;13.33;6.10;;;13.50;1.00;;;;;;5061783;28;20464;-76
2022/06/15 04:50:36;;;;;;;17.00;6.63;;;13.60;1.00;;;;;;5063275;28;20500;-77
2022/06/15 04:53:05;;;;;;;11.43;6.10;;;13.60;1.00;;;;;;5063942;28;20867;-75
2022/06/15 04:55:33;;;;;;;11.43;6.00;;;13.70;1.00;;;;;;5058008;28;20467;-78
2022/06/15 04:58:01;;;;;;;12.07;5.67;;;13.80;1.00;;;;;;5065824;28;20475;-77
2022/06/15 05:00:34;;;;;;;15.77;5.70;;;13.90;1.00;;;;;;5062458;28;20471;-78
2022/06/15 05:03:02;;;;;;;15.37;5.20;;;14.00;1.00;;;;;;5064330;28;20560;-76
2022/06/15 05:05:29;;;;;;;15.13;5.57;;;14.00;1.00;;;;;;5061822;28;20456;-76
2022/06/15 05:07:57;;;;;;;10.00;4.90;;;14.20;1.00;;;;;;5059589;28;20429;-75
2022/06/15 05:10:26;;;;;;;9.20;4.60;;;14.30;1.00;;;;;;5062402;28;20467;-75
2022/06/15 05:12:55;;;;;;;10.20;4.47;;;14.40;1.00;;;;;;5061229;28;20551;-75
2022/06/15 05:15:23;;;;;;;9.00;4.10;;;14.50;1.00;;;;;;5058981;28;20470;-75
2022/06/15 05:17:51;;;;;;;10.03;4.50;;;14.60;1.00;;;;;;5059864;28;20866;-76
2022/06/15 05:20:19;;;;;;;8.83;3.90;;;14.60;1.00;;;;;;5052324;28;20456;-76
2022/06/15 05:22:51;;;;;;;9.70;4.20;;;14.80;1.00;;;;;;5060551;28;20501;-75
2022/06/15 05:25:20;;;;;;;9.63;4.33;;;14.90;1.00;;;;;;5068105;28;21160;-75
2022/06/15 05:27:50;;;;;;;11.97;4.63;;;15.00;1.00;;;;;;5062379;28;20467;-78
2022/06/15 05:30:17;;;;;;;8.90;3.70;;;15.10;1.00;;;;;;5060328;28;20472;-75
2022/06/15 05:32:46;;;;;;;9.73;4.23;;;15.20;1.00;;;;;;5064316;28;20463;-76
2022/06/15 05:35:12;;;;;;;9.43;4.50;;;15.40;1.00;;;;;;5062284;28;20502;-77
2022/06/15 05:37:40;;;;;;;13.00;4.33;;;15.40;1.00;;;;;;5062794;28;20543;-76
2022/06/15 05:40:08;;;;;;;9.50;3.67;;;15.40;1.00;;;;;;5066426;28;20451;-75
2022/06/15 05:42:37;;;;;;;12.57;5.10;;;15.50;1.00;;;;;;5064676;28;20454;-77
2022/06/15 05:45:05;;;;;;;11.70;3.80;;;15.50;1.00;;;;;;5064704;28;20909;-75
2022/06/15 05:47:33;;;;;;;9.17;3.73;;;15.60;1.00;;;;;;5064880;28;20535;-76
2022/06/15 05:50:02;;;;;;;8.00;3.50;;;15.60;1.00;;;;;;5063386;28;20552;-75
2022/06/15 05:52:33;;;;;;;11.33;4.30;;;15.60;1.00;;;;;;5069711;28;20548;-77
2022/06/15 05:55:01;;;;;;;10.10;3.87;;;15.70;1.00;;;;;;5063066;28;21026;-76
2022/06/15 05:57:29;;;;;;;14.23;5.80;;;15.70;1.00;;;;;;5064566;28;20539;-75
2022/06/15 05:59:59;;;;;;;10.93;3.93;;;15.80;1.00;;;;;;5061794;28;20454;-76
2022/06/15 06:02:28;;;;;;;11.97;3.67;;;15.80;1.00;;;;;;5067267;28;20963;-76
2022/06/15 06:04:56;;;;;;;8.40;3.07;;;15.90;1.00;;;;;;5061803;28;20479;-76
2022/06/15 06:07:23;;;;;;;13.40;4.53;;;15.90;1.00;;;;;;5061942;28;20475;-76
2022/06/15 06:09:51;;;;;;;12.27;4.30;;;16.00;1.00;;;;;;5062487;28;20447;-75
2022/06/15 06:12:19;;;;;;;11.00;4.03;;;16.10;1.00;;;;;;5063102;28;21031;-76
2022/06/15 06:14:46;;;;;;;8.43;3.90;;;16.10;1.00;;;;;;5062114;28;20991;-75
2022/06/15 06:17:15;;;;;;;10.03;2.47;;;16.20;1.00;;;;;;5067102;28;20459;-74
2022/06/15 06:19:42;;;;;;;8.10;3.70;;;16.20;1.00;;;;;;5061505;28;21040;-74
2022/06/15 06:22:10;;;;;;;8.97;3.37;;;16.20;1.00;;;;;;5065745;28;20476;-77
2022/06/15 06:24:37;;;;;;;15.50;3.33;;;16.40;1.00;;;;;;5064495;28;20459;-76
2022/06/15 06:27:07;;;;;;;12.97;4.00;;;16.50;1.00;;;;;;5064252;28;20919;-76
2022/06/15 06:29:35;;;;;;;8.07;2.73;;;16.70;1.00;;;;;;5061356;28;20487;-75
2022/06/15 06:32:02;;;;;;;9.07;3.00;;;16.70;1.00;;;;;;5063823;28;21010;-76
2022/06/15 06:34:31;;;;;;;13.70;3.70;;;16.80;1.00;;;;;;5062622;28;20455;-77
2022/06/15 06:36:59;;;;;;;10.30;3.10;;;17.10;1.00;;;;;;5063890;28;20538;-76
2022/06/15 06:39:28;;;;;;;8.13;2.90;;;17.20;1.00;;;;;;5055910;28;20507;-76
2022/06/15 06:41:56;;;;;;;11.20;3.63;;;17.40;1.00;;;;;;5063486;28;20475;-76
2022/06/15 06:44:23;;;;;;;8.40;3.07;;;17.50;1.00;;;;;;5061412;28;20487;-76
2022/06/15 06:46:52;;;;;;;7.97;3.93;;;17.60;1.00;;;;;;5065162;28;20452;-76
2022/06/15 06:49:20;;;;;;;9.60;2.60;;;17.80;1.00;;;;;;5062787;28;20479;-76
2022/06/15 06:51:49;;;;;;;7.90;3.40;;;18.00;1.00;;;;;;5063112;28;20542;-76
2022/06/15 06:54:19;;;;;;;14.07;9.53;;;18.20;1.00;;;;;;5066403;28;20546;-76
2022/06/15 06:56:46;;;;;;;7.43;2.80;;;18.40;1.00;;;;;;5067231;28;20542;-76
2022/06/15 06:59:16;;;;;;;11.77;2.30;;;18.70;1.00;;;;;;5067196;28;20458;-76
2022/06/15 07:01:44;;;;;;;9.77;2.70;;;18.90;1.00;;;;;;5064391;28;20557;-77
2022/06/15 07:04:14;;;;;;;8.70;3.60;;;19.10;1.00;;;;;;5066202;28;20948;-76
2022/06/15 07:06:44;;;;;;;16.07;3.37;;;19.30;1.00;;;;;;5064912;28;20509;-78
2022/06/15 07:09:13;;;;;;;9.30;2.57;;;19.30;1.00;;;;;;5067477;28;20893;-77
2022/06/15 07:11:42;;;;;;;8.20;2.10;;;19.40;1.00;;;;;;5067164;28;20475;-77
2022/06/15 07:14:09;;;;;;;12.53;2.90;;;19.50;1.00;;;;;;5069498;28;20952;-76
2022/06/15 07:16:37;;;;;;;7.23;2.10;;;19.60;1.00;;;;;;5068231;28;20470;-76
2022/06/15 07:19:04;;;;;;;7.47;2.33;;;19.90;1.00;;;;;;5067590;28;20482;-75
2022/06/15 07:21:34;;;;;;;6.57;1.87;;;20.00;1.00;;;;;;5064430;28;20499;-76
2022/06/15 07:24:02;;;;;;;6.27;2.37;;;20.20;1.00;;;;;;5071027;28;20439;-76
2022/06/15 07:26:33;;;;;;;8.00;1.93;;;20.50;1.00;;;;;;5065417;28;20463;-76
2022/06/15 07:29:00;;;;;;;6.60;2.07;;;20.60;1.00;;;;;;5066580;28;20525;-76
2022/06/15 07:31:30;;;;;;;9.40;1.87;;;20.60;1.00;;;;;;5064159;28;20559;-76
2022/06/15 07:33:57;;;;;;;5.13;1.47;;;20.60;1.00;;;;;;5060637;28;20456;-77
2022/06/15 07:36:25;;;;;;;4.70;1.60;;;20.60;1.00;;;;;;5060604;28;20497;-76
2022/06/15 07:38:53;;;;;;;6.77;3.50;;;20.50;1.00;;;;;;5057657;28;20534;-77
2022/06/15 07:41:24;;;;;;;6.37;2.43;;;20.70;1.00;;;;;;5060080;28;20523;-77
2022/06/15 07:43:53;;;;;;;4.87;1.60;;;20.90;1.00;;;;;;5061580;28;20460;-76
2022/06/15 07:46:22;;;;;;;5.70;2.00;;;21.00;1.00;;;;;;5062598;28;20483;-76
2022/06/15 07:51:38;;;;;;;5.90;1.67;;;21.30;1.00;;;;;;5062549;28;20441;-78
2022/06/15 07:54:09;;;;;;;4.70;1.30;;;21.10;1.00;;;;;;5058042;28;20455;-76
2022/06/15 07:56:39;;;;;;;5.10;1.60;;;21.10;1.00;;;;;;5061861;28;20491;-76
2022/06/15 07:59:08;;;;;;;4.40;1.40;;;20.90;1.00;;;;;;5064323;28;21038;-77
2022/06/15 08:01:35;;;;;;;5.80;1.60;;;20.90;1.00;;;;;;5061474;28;20471;-76
2022/06/15 08:04:03;;;;;;;5.53;1.63;;;21.00;1.00;;;;;;5065957;28;21057;-76
2022/06/15 08:06:30;;;;;;;6.40;1.63;;;20.80;1.00;;;;;;5061569;28;20612;-76
2022/06/15 08:08:58;;;;;;;5.73;1.57;;;20.60;1.00;;;;;;5065954;28;20974;-76
2022/06/15 08:11:26;;;;;;;7.00;1.90;;;20.70;1.00;;;;;;5060862;28;20559;-76
2022/06/15 08:13:53;;;;;;;4.93;1.60;;;20.70;1.00;;;;;;5059713;28;20468;-76
2022/06/15 08:16:22;;;;;;;7.00;2.00;;;20.80;1.00;;;;;;5062826;28;21339;-76
2022/06/15 08:18:55;;;;;;;5.27;1.80;;;20.90;1.00;;;;;;5063225;28;20995;-77
2022/06/15 08:21:25;;;;;;;8.33;2.50;;;21.00;1.00;;;;;;5058800;28;20467;-77
2022/06/15 08:23:55;;;;;;;8.27;2.70;;;21.00;1.00;;;;;;5052639;28;20448;-77
2022/06/15 08:26:26;;;;;;;5.77;2.10;;;21.20;1.00;;;;;;5064864;28;21190;-76
2022/06/15 08:29:04;;;;;;;7.23;3.03;;;21.30;1.00;;;;;;5062937;28;20455;-77
2022/06/15 08:31:33;;;;;;;5.60;1.73;;;21.30;1.00;;;;;;5061775;28;20479;-76
2022/06/15 08:33:59;;;;;;;6.07;2.20;;;21.20;1.00;;;;;;5063056;28;20463;-77
2022/06/15 08:36:26;;;;;;;5.60;2.13;;;21.30;1.00;;;;;;5065877;28;20586;-77
2022/06/15 08:38:53;;;;;;;5.97;2.00;;;21.30;1.00;;;;;;5061560;28;20459;-76
2022/06/15 08:41:28;;;;;;;7.20;2.20;;;21.40;1.00;;;;;;5063797;28;20479;-76
2022/06/15 08:44:03;;;;;;;6.30;2.10;;;21.60;1.00;;;;;;5062561;28;20459;-76
2022/06/15 08:46:44;;;;;;;6.07;1.77;;;21.80;1.00;;;;;;5067312;28;20543;-77
2022/06/15 08:49:37;;;;;;;4.83;2.07;;;22.00;1.00;;;;;;5069031;28;20456;-77
2022/06/15 08:52:09;;;;;;;7.63;2.30;;;22.00;1.00;;;;;;5050700;28;20475;-76
2022/06/15 08:54:40;;;;;;;5.23;2.10;;;22.00;1.00;;;;;;5062081;28;20609;-75
2022/06/15 08:57:10;;;;;;;5.83;2.23;;;22.10;1.00;;;;;;5067651;28;20477;-76
2022/06/15 08:59:45;;;;;;;6.50;2.07;;;22.20;1.00;;;;;;5069249;28;20469;-76
2022/06/15 09:02:21;;;;;;;6.87;1.80;;;22.30;1.00;;;;;;5064288;28;20511;-76
2022/06/15 09:04:57;;;;;;;6.87;2.57;;;22.40;1.00;;;;;;5063907;28;20455;-76
2022/06/15 09:07:43;;;;;;;7.23;1.93;;;22.60;1.00;;;;;;5064881;28;20514;-76
2022/06/15 09:10:37;;;;;;;5.10;1.87;;;22.70;1.00;;;;;;5063770;28;20460;-77
2022/06/15 09:13:22;;;;;;;6.20;2.20;;;22.90;1.00;;;;;;5064783;28;20554;-79
2022/06/15 09:16:00;;;;;;;5.53;1.87;;;23.00;1.00;;;;;;5065595;28;20477;-78
2022/06/15 09:18:37;;;;;;;6.10;2.30;;;23.20;1.00;;;;;;5063809;28;20474;-78
2022/06/15 09:21:10;;;;;;;7.80;1.87;;;23.20;1.00;;;;;;5064696;28;20926;-77
2022/06/15 09:23:42;;;;;;;10.13;5.70;;;23.20;1.00;;;;;;5062331;28;20506;-77
2022/06/15 09:26:17;;;;;;;5.80;2.27;;;23.20;1.00;;;;;;5060912;28;21110;-76
2022/06/15 09:28:47;;;;;;;6.90;2.90;;;23.30;1.00;;;;;;5061239;28;20443;-78
2022/06/15 09:31:19;;;;;;;8.63;3.10;;;23.40;1.00;;;;;;5060225;28;20456;-76
2022/06/15 09:33:54;;;;;;;5.50;2.30;;;23.60;1.00;;;;;;5061191;28;20459;-75
2022/06/15 09:36:29;;;;;;;8.57;2.30;;;23.80;1.00;;;;;;5060126;28;20467;-77
2022/06/15 09:38:56;;;;;;;8.13;2.30;;;24.10;1.00;;;;;;5057380;28;20533;-78
2022/06/15 09:41:33;;;;;;;7.83;2.27;;;24.80;1.00;;;;;;5057312;28;20451;-79
2022/06/15 09:44:17;;;;;;;6.43;2.77;;;26.20;1.00;;;;;;5061393;28;20497;-78
2022/06/15 09:46:55;;;;;;;6.17;2.20;;;27.80;1.00;;;;;;5061846;28;20451;-78
2022/06/15 09:49:35;;;;;;;6.10;2.60;;;29.30;1.00;;;;;;5057311;28;20459;-77
2022/06/15 09:52:16;;;;;;;5.50;2.30;;;30.30;1.00;;;;;;5061966;28;20846;-76
2022/06/15 09:54:58;;;;;;;5.20;2.67;;;31.00;1.00;;;;;;5058004;28;20931;-78
2022/06/15 09:57:26;;;;;;;4.47;2.00;;;31.50;1.00;;;;;;5062079;28;20452;-77
2022/06/15 09:59:53;;;;;;;5.97;2.87;;;32.10;1.00;;;;;;5060591;28;20495;-78
2022/06/15 10:02:26;;;;;;;5.20;2.50;;;32.60;1.00;;;;;;5056823;28;20460;-75
2022/06/15 10:04:55;;;;;;;6.30;2.93;;;33.00;1.00;;;;;;5062231;28;20571;-76
2022/06/15 10:07:28;;;;;;;3.80;1.87;;;33.50;1.00;;;;;;5061476;28;20603;-76
2022/06/15 10:10:13;;;;;;;5.80;2.37;;;33.60;1.00;;;;;;5058270;28;20460;-77
2022/06/15 10:12:59;;;;;;;4.10;2.27;;;33.90;1.00;;;;;;5056542;28;20469;-78
2022/06/15 10:15:31;;;;;;;4.50;2.37;;;34.00;1.00;;;;;;5064441;28;20479;-77
2022/06/15 10:18:03;;;;;;;4.83;2.77;;;34.00;1.00;;;;;;5065552;28;20464;-77
2022/06/15 10:20:36;;;;;;;3.03;2.10;;;33.70;1.00;;;;;;5063422;28;20495;-77
2022/06/15 10:23:06;;;;;;;6.93;2.37;;;33.30;1.00;;;;;;5059798;28;20543;-77
2022/06/15 10:25:38;;;;;;;5.37;3.20;;;33.90;1.00;;;;;;5063216;28;20484;-77
2022/06/15 10:28:13;;;;;;;4.83;2.53;;;34.20;1.00;;;;;;5065013;28;20503;-77
2022/06/15 10:30:53;;;;;;;3.43;2.53;;;34.20;1.00;;;;;;5065136;28;20467;-77
2022/06/15 10:33:20;;;;;;;4.03;2.17;;;34.00;1.00;;;;;;5070139;28;20881;-77
2022/06/15 10:35:56;;;;;;;4.30;2.20;;;34.00;1.00;;;;;;5063793;28;20936;-77
2022/06/15 10:38:24;;;;;;;4.23;2.30;;;34.30;1.00;;;;;;5068123;28;20455;-77
2022/06/15 10:41:45;;;;;;;7.17;2.80;;;34.80;1.00;;;;;;5064441;28;20998;-77
2022/06/15 10:43:50;;;;;;;4.13;2.50;;;35.10;1.00;;;;;;5069245;28;20448;-77
2022/06/15 10:46:20;;;;;;;3.83;2.47;;;35.30;1.00;;;;;;5071678;28;20992;-75
2022/06/15 10:48:50;;;;;;;3.10;2.20;;;35.30;1.00;;;;;;5064132;28;20454;-76
2022/06/15 10:51:31;;;;;;;7.30;2.53;;;35.70;1.00;;;;;;5070565;28;20467;-75
2022/06/15 10:54:18;;;;;;;5.97;2.57;;;35.60;1.00;;;;;;5062177;28;20451;-76
2022/06/15 11:02:30;;;;;;;6.03;2.40;;;36.30;1.00;;;;;;5060258;28;20462;-77
2022/06/15 11:05:03;;;;;;;4.00;2.60;;;36.20;1.00;;;;;;5063351;28;20944;-76
2022/06/15 11:07:36;;;;;;;21.30;7.70;;;35.80;1.00;;;;;;5063265;28;20533;-76
2022/06/15 11:10:11;;;;;;;3.87;2.50;;;36.10;1.00;;;;;;5066406;28;20469;-76
2022/06/15 11:12:44;;;;;;;5.57;2.77;;;36.30;1.00;;;;;;5064063;28;20565;-76
2022/06/15 11:18:01;;;;;;;7.80;2.47;;;36.90;1.00;;;;;;5056252;28;20475;-76
2022/06/15 11:18:23;;;;;;;5.13;2.60;;;37.10;1.00;;;;;;5061972;28;20602;-76
2022/06/15 11:20:54;;;;;;;4.00;2.10;;;37.70;1.00;;;;;;5064035;28;20841;-78
2022/06/15 11:23:28;;;;;;;3.00;2.23;;;38.30;1.00;;;;;;5061488;28;24192;-76
2022/06/15 11:26:00;;;;;;;3.23;2.13;;;38.10;1.00;;;;;;5054175;28;20471;-76
2022/06/15 11:28:33;;;;;;;6.70;3.37;;;37.70;1.00;;;;;;5055943;28;20571;-76
2022/06/15 11:31:04;;;;;;;6.50;3.23;;;37.60;1.00;;;;;;5066039;28;20901;-76
2022/06/15 11:33:39;;;;;;;4.47;2.60;;;37.50;1.00;;;;;;5062482;28;20475;-78
2022/06/15 11:36:17;;;;;;;4.43;2.80;;;38.10;1.00;;;;;;5060394;28;21043;-76
2022/06/15 11:38:53;;;;;;;5.97;3.10;;;38.90;1.00;;;;;;5070826;28;20461;-77
2022/06/15 11:41:25;;;;;;;3.20;1.90;;;38.90;1.00;;;;;;5059834;28;20463;-78
2022/06/15 11:43:54;;;;;;;6.87;2.80;;;39.00;1.00;;;;;;5061984;28;20458;-75
2022/06/15 11:46:44;;;;;;;7.77;3.27;;;39.50;1.00;;;;;;5064952;28;20499;-77
2022/06/15 11:49:32;;;;;;;5.80;3.27;;;39.30;1.00;;;;;;5063970;28;24343;-77
2022/06/15 11:52:18;;;;;;;4.77;2.60;;;39.50;1.00;;;;;;5063434;28;20836;-75
2022/06/15 11:55:07;;;;;;;4.70;2.40;;;38.80;1.00;;;;;;5064653;28;20543;-76
2022/06/15 11:57:44;;;;;;;5.23;2.80;;;38.90;1.00;;;;;;5062808;28;20839;-77
2022/06/15 12:00:20;;;;;;;5.30;2.60;;;39.00;1.00;;;;;;5059628;28;20467;-75
2022/06/15 12:03:05;;;;;;;6.67;2.80;;;39.20;1.00;;;;;;5058815;28;20451;-75
2022/06/15 12:05:37;;;;;;;6.27;2.93;;;39.50;1.00;;;;;;5060613;28;20495;-75
2022/06/15 12:08:15;;;;;;;4.23;2.50;;;39.70;1.00;;;;;;5059652;28;20600;-76
2022/06/15 12:10:50;;;;;;;4.30;2.63;;;39.80;1.00;;;;;;5064143;28;20673;-76
2022/06/15 12:13:27;;;;;;;5.07;2.73;;;40.00;1.00;;;;;;5062392;28;20946;-75
2022/06/15 12:15:59;;;;;;;4.43;2.57;;;39.90;1.00;;;;;;5064226;28;20529;-76
2022/06/15 12:18:36;;;;;;;6.00;2.50;;;39.90;1.00;;;;;;5058238;28;20451;-77
2022/06/15 12:21:15;;;;;;;4.40;2.50;;;39.90;1.00;;;;;;5066396;28;20498;-75
2022/06/15 12:23:45;;;;;;;6.17;2.90;;;39.90;1.00;;;;;;5063457;28;20459;-75
2022/06/15 12:26:23;;;;;;;3.00;2.37;;;39.90;1.00;;;;;;5065526;28;20466;-76
2022/06/15 12:29:01;;;;;;;6.23;2.67;;;39.70;1.00;;;;;;5065891;28;20557;-76
2022/06/15 12:31:36;;;;;;;5.40;2.87;;;40.00;1.00;;;;;;5068328;28;20476;-76
2022/06/15 12:34:12;;;;;;;5.63;3.33;;;40.40;1.00;;;;;;5063708;28;20554;-75
2022/06/15 12:36:45;;;;;;;4.97;2.70;;;40.40;1.00;;;;;;5062069;28;20463;-76
2022/06/15 12:39:20;;;;;;;3.97;3.03;;;40.20;1.00;;;;;;5063493;28;20550;-76
2022/06/15 12:44:41;;;;;;;4.03;2.30;;;41.00;1.00;;;;;;5064116;28;20456;-76
2022/06/15 12:47:12;;;;;;;6.23;2.90;;;40.50;1.00;;;;;;5064678;28;20455;-75
2022/06/15 12:49:44;;;;;;;5.10;2.80;;;40.70;1.00;;;;;;5063000;28;20451;-75
2022/06/15 12:52:17;;;;;;;3.90;3.07;;;41.00;1.00;;;;;;5056694;28;20467;-75
2022/06/15 12:54:59;;;;;;;4.10;2.47;;;40.80;1.00;;;;;;5063452;28;20454;-75
2022/06/15 12:57:37;;;;;;;6.27;3.17;;;40.90;1.00;;;;;;5060869;28;20459;-77
2022/06/15 13:00:14;;;;;;;4.40;2.80;;;40.60;1.00;;;;;;5060359;28;20911;-75
2022/06/15 13:02:49;;;;;;;20.80;11.33;;;40.70;1.00;;;;;;5061163;28;20897;-77
2022/06/15 13:05:25;;;;;;;5.40;3.13;;;40.90;1.00;;;;;;5060487;28;20474;-76
2022/06/15 13:08:19;;;;;;;4.10;2.43;;;41.30;1.00;;;;;;5063260;28;21376;-75
2022/06/15 13:11:12;;;;;;;4.67;2.80;;;41.20;1.00;;;;;;5060999;28;20471;-76
2022/06/15 13:13:45;;;;;;;13.40;4.93;;;40.40;1.00;;;;;;5062970;28;20475;-75
2022/06/15 13:16:15;;;;;;;5.00;2.90;;;40.40;1.00;;;;;;5065686;28;21026;-74
2022/06/15 13:18:49;;;;;;;6.30;3.67;;;40.80;1.00;;;;;;5066315;28;20475;-75
2022/06/15 13:21:19;;;;;;;4.10;2.63;;;40.60;1.00;;;;;;5065304;28;21054;-75
2022/06/15 13:23:50;;;;;;;4.23;2.90;;;40.90;1.00;;;;;;5064517;28;20512;-75
2022/06/15 13:26:21;;;;;;;4.40;3.33;;;40.70;1.00;;;;;;5065912;28;20505;-75
2022/06/15 13:29:21;;;;;;;9.20;3.20;;;40.50;1.00;;;;;;5075959;28;20491;-75